Time;durP1;ratioP1;P1;durP2;ratioP2;P2;SDS_P1;SDS_P2;PMS_P1;PMS_P2;Temp;Humidity;BMP_temperature;BMP_pressure;BME280_temperature;BME280_humidity;BME280_pressure;Samples;Min_cycle;Max_cycle;Signal;HPM_P1;HPM_P2
2022/07/03 00:00:02;;;;;;;6.88;2.85;;;20.40;67.40;;;;;;6164242;23;20027;-73
2022/07/03 00:02:29;;;;;;;5.18;2.65;;;20.40;67.60;;;;;;6188460;23;20000;-73
2022/07/03 00:04:56;;;;;;;4.10;2.40;;;20.40;67.60;;;;;;6188973;23;20446;-73
2022/07/03 00:07:25;;;;;;;6.18;2.65;;;20.40;67.50;;;;;;6163579;23;19996;-73
2022/07/03 00:09:53;;;;;;;6.28;3.05;;;20.40;67.50;;;;;;6215126;23;20028;-73
2022/07/03 00:12:20;;;;;;;3.80;2.20;;;20.40;67.60;;;;;;6164265;23;20004;-73
2022/07/03 00:14:50;;;;;;;4.30;2.40;;;20.40;67.50;;;;;;6215028;23;20327;-72
2022/07/03 00:17:17;;;;;;;6.05;2.50;;;20.30;67.60;;;;;;6164397;23;20009;-73
2022/07/03 00:19:44;;;;;;;4.00;2.25;;;20.40;67.60;;;;;;6188796;23;20023;-73
2022/07/03 00:22:12;;;;;;;4.22;2.55;;;20.30;67.70;;;;;;6188209;23;20011;-73
2022/07/03 00:24:48;;;;;;;4.75;2.40;;;20.40;67.70;;;;;;6163979;23;20001;-73
2022/07/03 00:27:19;;;;;;;4.22;2.47;;;20.30;67.70;;;;;;6188671;23;20052;-73
2022/07/03 00:29:46;;;;;;;4.60;2.10;;;20.30;67.60;;;;;;6188408;23;20433;-73
2022/07/03 00:32:14;;;;;;;4.93;2.33;;;20.30;67.60;;;;;;6188529;23;20434;-73
2022/07/03 00:34:42;;;;;;;4.28;2.22;;;20.30;67.70;;;;;;6214600;23;20071;-73
2022/07/03 00:37:09;;;;;;;6.32;2.10;;;20.30;67.70;;;;;;6188343;23;20004;-73
2022/07/03 00:39:42;;;;;;;3.78;2.33;;;20.30;67.70;;;;;;6163864;23;20019;-73
2022/07/03 00:42:10;;;;;;;6.00;2.30;;;20.30;67.80;;;;;;6188031;23;20001;-73
2022/07/03 00:44:51;;;;;;;5.00;2.45;;;20.30;67.80;;;;;;6163694;23;20107;-73
2022/07/03 00:47:22;;;;;;;3.10;2.03;;;20.30;67.80;;;;;;6214911;23;19996;-72
2022/07/03 00:49:53;;;;;;;7.25;2.67;;;20.30;67.80;;;;;;6188524;23;20058;-72
2022/07/03 00:52:21;;;;;;;4.32;2.47;;;20.30;67.90;;;;;;6189162;23;20017;-73
2022/07/03 00:54:55;;;;;;;3.90;2.30;;;20.30;67.90;;;;;;6188587;23;20027;-73
2022/07/03 00:57:23;;;;;;;4.75;2.45;;;20.30;67.80;;;;;;6188292;23;20000;-73
2022/07/03 00:59:52;;;;;;;4.82;2.05;;;20.30;67.90;;;;;;6214635;23;20000;-73
2022/07/03 01:02:34;;;;;;;5.75;2.50;;;20.30;67.90;;;;;;6188934;23;20004;-73
2022/07/03 01:05:12;;;;;;;4.28;2.20;;;20.30;67.90;;;;;;6189436;23;20376;-73
2022/07/03 01:08:02;;;;;;;3.33;2.20;;;20.30;68.00;;;;;;6188681;23;19996;-73
2022/07/03 01:10:50;;;;;;;3.75;2.00;;;20.30;68.00;;;;;;6165286;23;20001;-73
2022/07/03 01:13:20;;;;;;;3.50;2.30;;;20.30;68.00;;;;;;6214489;23;20015;-72
2022/07/03 01:16:06;;;;;;;3.75;1.90;;;20.30;68.00;;;;;;6214544;23;20005;-72
2022/07/03 01:18:39;;;;;;;5.60;2.53;;;20.20;68.00;;;;;;6164706;23;20035;-72
2022/07/03 01:21:12;;;;;;;;;;;20.20;68.00;;;;;;6188367;23;20008;-72
2022/07/03 01:23:51;;;;;;;4.78;2.22;;;20.20;67.90;;;;;;6214244;23;20242;-72
2022/07/03 01:26:18;;;;;;;3.95;1.88;;;20.20;68.00;;;;;;6214555;23;20388;-72
2022/07/03 01:28:49;;;;;;;4.55;2.25;;;20.20;68.10;;;;;;6188396;23;20000;-73
2022/07/03 01:31:20;;;;;;;4.15;2.05;;;20.20;68.10;;;;;;6189026;23;20005;-73
2022/07/03 01:33:47;;;;;;;2.42;1.63;;;20.20;68.10;;;;;;6188520;23;20012;-73
2022/07/03 01:36:16;;;;;;;4.85;2.40;;;20.20;68.20;;;;;;6163619;23;20032;-73
2022/07/03 01:38:47;;;;;;;4.72;2.00;;;20.20;68.10;;;;;;6182806;23;20449;-73
2022/07/03 01:41:21;;;;;;;4.35;2.05;;;20.20;68.10;;;;;;6182033;23;20028;-73
2022/07/03 01:43:49;;;;;;;5.32;1.90;;;20.20;68.10;;;;;;6158265;23;20067;-72
2022/07/03 01:46:17;;;;;;;3.25;1.95;;;20.20;68.20;;;;;;6182829;23;20001;-72
2022/07/03 01:48:45;;;;;;;3.22;2.05;;;20.20;68.10;;;;;;6184172;23;20004;-72
2022/07/03 01:51:17;;;;;;;4.78;1.92;;;20.20;68.10;;;;;;6183055;23;20005;-72
2022/07/03 01:53:46;;;;;;;4.20;2.25;;;20.20;68.20;;;;;;6183451;23;20009;-72
2022/07/03 01:56:13;;;;;;;2.85;2.00;;;20.20;68.20;;;;;;6160490;23;20016;-72
2022/07/03 01:58:40;;;;;;;2.40;1.98;;;20.20;68.20;;;;;;6160278;23;20005;-72
2022/07/03 02:01:26;;;;;;;19.02;2.63;;;20.20;68.20;;;;;;6184802;23;20446;-72
2022/07/03 02:04:14;;;;;;;3.13;1.80;;;20.20;68.20;;;;;;6184830;23;20001;-72
2022/07/03 02:06:45;;;;;;;4.70;2.00;;;20.20;68.20;;;;;;6186013;23;20001;-72
2022/07/03 02:09:13;;;;;;;3.78;2.03;;;20.20;68.20;;;;;;6184907;23;20007;-72
2022/07/03 02:11:41;;;;;;;2.75;1.92;;;20.20;68.20;;;;;;6160151;23;20080;-72
2022/07/03 02:14:12;;;;;;;3.83;1.73;;;20.20;68.40;;;;;;6184598;23;20013;-72
2022/07/03 02:17:16;;;;;;;3.88;1.90;;;20.20;68.20;;;;;;6184239;23;20005;-72
2022/07/03 02:20:02;;;;;;;2.58;1.73;;;20.20;68.20;;;;;;6162325;23;20001;-72
2022/07/03 02:22:32;;;;;;;4.13;1.73;;;20.20;68.20;;;;;;6184724;23;20001;-72
2022/07/03 02:25:06;;;;;;;3.33;1.95;;;20.20;68.30;;;;;;6160169;23;19997;-73
2022/07/03 02:27:44;;;;;;;4.40;1.98;;;20.10;68.30;;;;;;6160641;23;20355;-73
2022/07/03 02:30:12;;;;;;;2.60;1.85;;;20.10;68.30;;;;;;6135624;23;20001;-72
2022/07/03 02:32:49;;;;;;;2.85;1.58;;;20.10;68.20;;;;;;6186096;23;20009;-72
2022/07/03 02:35:22;;;;;;;5.38;2.15;;;20.10;68.30;;;;;;6160684;23;20031;-73
2022/07/03 02:38:09;;;;;;;3.38;1.70;;;20.10;68.20;;;;;;6184302;23;20188;-73
2022/07/03 02:40:54;;;;;;;4.72;1.83;;;20.10;68.40;;;;;;6184499;23;20005;-73
2022/07/03 02:43:54;;;;;;;4.63;2.08;;;20.10;68.20;;;;;;6186007;23;20123;-73
2022/07/03 02:49:20;;;;;;;6.68;1.58;;;20.10;68.30;;;;;;6066018;23;20098;-73
2022/07/03 02:52:10;;;;;;;4.13;1.80;;;20.10;68.30;;;;;;6065876;23;20007;-73
2022/07/03 02:54:46;;;;;;;2.45;1.50;;;20.10;68.20;;;;;;6065734;23;20018;-73
2022/07/03 02:57:20;;;;;;;3.30;1.67;;;20.10;68.40;;;;;;6043463;23;20010;-73
2022/07/03 02:59:49;;;;;;;3.30;1.75;;;20.10;68.40;;;;;;6018830;23;20517;-73
2022/07/03 03:02:37;;;;;;;2.65;1.70;;;20.10;68.30;;;;;;6065934;23;20007;-73
2022/07/03 03:05:10;;;;;;;7.47;1.95;;;20.10;68.30;;;;;;6065198;23;20011;-73
2022/07/03 03:07:59;;;;;;;;;;;20.10;68.50;;;;;;6042274;23;20101;-73
2022/07/03 03:10:27;;;;;;;3.90;2.10;;;20.10;68.30;;;;;;6008695;23;19902;-73
2022/07/03 03:13:03;;;;;;;3.13;1.63;;;20.10;68.40;;;;;;5985397;23;20022;-73
2022/07/03 03:15:30;;;;;;;2.53;1.60;;;20.10;68.50;;;;;;5985154;23;20016;-73
2022/07/03 03:18:10;;;;;;;3.15;1.83;;;20.10;68.50;;;;;;5985322;23;20011;-73
2022/07/03 03:20:38;;;;;;;3.17;2.00;;;20.10;68.50;;;;;;6008495;23;20008;-73
2022/07/03 03:23:07;;;;;;;2.60;1.60;;;20.10;68.60;;;;;;6010916;23;20066;-73
2022/07/03 03:25:39;;;;;;;3.92;1.70;;;20.10;68.50;;;;;;6065376;23;20074;-73
2022/07/03 03:28:08;;;;;;;3.22;1.75;;;20.10;68.50;;;;;;6042404;23;20010;-72
2022/07/03 03:30:38;;;;;;;3.95;1.90;;;20.10;68.50;;;;;;6041248;23;20082;-72
2022/07/03 03:33:08;;;;;;;3.67;1.70;;;20.10;68.60;;;;;;6065730;23;20097;-72
2022/07/03 03:35:42;;;;;;;2.95;1.83;;;20.10;68.60;;;;;;6065198;23;20014;-72
2022/07/03 03:38:08;;;;;;;3.00;1.83;;;20.10;68.60;;;;;;6043207;23;20456;-72
2022/07/03 03:40:34;;;;;;;2.83;1.50;;;20.00;68.40;;;;;;6041372;23;20086;-72
2022/07/03 03:43:00;;;;;;;3.40;1.48;;;20.00;68.50;;;;;;6041157;23;20011;-72
2022/07/03 03:45:26;;;;;;;2.92;1.40;;;20.00;68.40;;;;;;6065519;23;20029;-72
2022/07/03 03:47:51;;;;;;;3.03;1.85;;;20.00;68.40;;;;;;6138611;23;20408;-72
2022/07/03 03:50:17;;;;;;;7.47;1.58;;;20.00;68.40;;;;;;6183678;23;20068;-72
2022/07/03 03:52:42;;;;;;;2.67;1.40;;;20.00;68.50;;;;;;6158887;23;20096;-72
2022/07/03 03:55:09;;;;;;;4.22;1.75;;;20.00;68.40;;;;;;6185001;23;20001;-72
2022/07/03 03:57:34;;;;;;;3.13;1.52;;;20.00;68.50;;;;;;6183549;23;20200;-72
2022/07/03 04:00:00;;;;;;;3.15;1.83;;;20.10;68.50;;;;;;6159098;23;20457;-72
2022/07/03 04:02:26;;;;;;;2.28;1.25;;;20.00;68.50;;;;;;6184961;23;20001;-72
2022/07/03 04:04:51;;;;;;;3.00;1.45;;;20.00;68.40;;;;;;6158668;23;19997;-72
2022/07/03 04:07:17;;;;;;;1.58;1.27;;;20.00;68.50;;;;;;6185054;23;20105;-72
2022/07/03 04:09:44;;;;;;;2.33;1.35;;;20.00;68.50;;;;;;6184871;23;19997;-72
2022/07/03 04:12:10;;;;;;;2.10;1.40;;;20.00;68.50;;;;;;6184801;23;20084;-73
2022/07/03 04:14:36;;;;;;;2.58;1.50;;;20.00;68.60;;;;;;6158748;23;20078;-72
2022/07/03 04:17:01;;;;;;;2.10;1.35;;;20.00;68.50;;;;;;6183240;23;20417;-72
2022/07/03 04:19:27;;;;;;;2.42;1.67;;;20.00;68.50;;;;;;6184982;23;20032;-72
2022/07/03 04:21:53;;;;;;;1.90;1.58;;;20.00;68.50;;;;;;6158731;23;20012;-73
2022/07/03 04:24:18;;;;;;;3.42;1.70;;;20.00;68.50;;;;;;6183414;23;20005;-72
2022/07/03 04:26:44;;;;;;;2.33;1.45;;;20.00;68.50;;;;;;6184679;23;20001;-72
2022/07/03 04:29:10;;;;;;;1.67;1.20;;;20.00;68.50;;;;;;6184928;23;20005;-73
2022/07/03 04:31:35;;;;;;;1.42;1.10;;;20.00;68.60;;;;;;6183328;23;20005;-73
2022/07/03 04:34:01;;;;;;;3.15;1.35;;;20.00;68.60;;;;;;6183482;23;20005;-73
2022/07/03 04:36:27;;;;;;;1.90;1.10;;;20.00;68.60;;;;;;6184844;23;20001;-73
2022/07/03 04:38:52;;;;;;;2.95;1.77;;;20.00;68.60;;;;;;6183127;23;20021;-72
2022/07/03 04:41:18;;;;;;;2.08;1.38;;;20.00;68.60;;;;;;6184502;23;20016;-73
2022/07/03 04:43:44;;;;;;;2.60;1.50;;;20.00;68.60;;;;;;6183179;23;20001;-73
2022/07/03 04:46:09;;;;;;;2.33;1.40;;;20.00;68.50;;;;;;6184750;23;20047;-73
2022/07/03 04:48:35;;;;;;;2.05;1.50;;;20.00;68.60;;;;;;6183289;23;20001;-72
2022/07/03 04:51:00;;;;;;;2.80;1.55;;;20.00;68.60;;;;;;6184672;23;20005;-72
2022/07/03 04:53:26;;;;;;;1.77;1.50;;;20.00;68.60;;;;;;6183408;23;20001;-72
2022/07/03 04:55:52;;;;;;;1.45;1.20;;;20.00;69.60;;;;;;6184325;23;20055;-72
2022/07/03 04:58:18;;;;;;;3.50;1.50;;;20.00;68.60;;;;;;6183286;23;20373;-72
2022/07/03 05:00:44;;;;;;;2.17;1.05;;;20.00;68.70;;;;;;6158555;23;20001;-72
2022/07/03 05:03:10;;;;;;;3.50;1.45;;;20.00;68.60;;;;;;6183043;23;20001;-72
2022/07/03 05:05:36;;;;;;;3.47;1.35;;;20.00;68.70;;;;;;6156589;23;20001;-72
2022/07/03 05:08:01;;;;;;;1.73;1.35;;;20.00;68.70;;;;;;6181985;23;20120;-73
2022/07/03 05:10:27;;;;;;;1.75;1.30;;;20.00;68.70;;;;;;6183389;23;20001;-72
2022/07/03 05:12:53;;;;;;;1.35;1.23;;;20.00;68.80;;;;;;6183621;23;20027;-72
2022/07/03 05:15:19;;;;;;;1.95;1.20;;;20.00;68.80;;;;;;6182121;23;20064;-72
2022/07/03 05:17:44;;;;;;;2.13;1.40;;;20.00;68.80;;;;;;6157368;23;20008;-73
2022/07/03 05:20:29;;;;;;;2.13;1.30;;;20.00;68.70;;;;;;6157541;23;20002;-73
2022/07/03 05:22:59;;;;;;;1.77;1.17;;;20.00;68.70;;;;;;6182366;23;20009;-72
2022/07/03 05:25:25;;;;;;;2.17;1.38;;;19.90;68.70;;;;;;6157628;23;20076;-72
2022/07/03 05:27:52;;;;;;;2.90;1.30;;;20.00;68.80;;;;;;6181795;23;20028;-72
2022/07/03 05:30:18;;;;;;;3.10;1.30;;;20.00;68.90;;;;;;6182049;23;20001;-72
2022/07/03 05:32:44;;;;;;;1.20;1.10;;;20.00;68.90;;;;;;6132622;23;20012;-72
2022/07/03 05:35:09;;;;;;;2.78;1.17;;;20.00;68.90;;;;;;6182010;23;20329;-72
2022/07/03 05:37:35;;;;;;;2.05;1.40;;;19.90;68.90;;;;;;6191037;23;20009;-72
2022/07/03 05:40:01;;;;;;;2.35;1.30;;;20.00;68.90;;;;;;6186875;23;20009;-72
2022/07/03 05:42:26;;;;;;;1.70;1.13;;;20.00;69.00;;;;;;6162427;23;20009;-72
2022/07/03 05:44:52;;;;;;;1.88;1.08;;;20.00;67.40;;;;;;6186278;23;20001;-72
2022/07/03 05:47:18;;;;;;;1.20;1.00;;;19.90;67.00;;;;;;6187073;23;20334;-72
2022/07/03 05:49:43;;;;;;;1.75;0.90;;;19.90;67.00;;;;;;6213622;23;19993;-72
2022/07/03 05:52:09;;;;;;;2.38;0.90;;;19.90;67.00;;;;;;6213837;23;20005;-72
2022/07/03 05:54:34;;;;;;;1.73;0.90;;;19.90;67.10;;;;;;6213334;23;20106;-72
2022/07/03 05:57:00;;;;;;;1.60;0.90;;;19.90;67.20;;;;;;6213414;23;21254;-72
2022/07/03 05:59:26;;;;;;;3.03;1.17;;;19.80;67.10;;;;;;6213701;23;20051;-72
2022/07/03 06:01:51;;;;;;;1.80;0.85;;;19.80;67.00;;;;;;6213472;23;20063;-74
2022/07/03 06:04:17;;;;;;;2.75;1.15;;;19.80;67.10;;;;;;6186325;23;20001;-76
2022/07/03 06:06:43;;;;;;;2.80;0.90;;;20.00;66.80;;;;;;6162226;23;20001;-75
2022/07/03 06:09:08;;;;;;;1.70;0.82;;;20.10;66.30;;;;;;6213350;23;20420;-74
2022/07/03 06:11:34;;;;;;;1.27;1.10;;;20.20;66.00;;;;;;6214632;23;20004;-75
2022/07/03 06:13:59;;;;;;;1.27;0.88;;;20.40;65.80;;;;;;6215169;23;20047;-76
2022/07/03 06:16:25;;;;;;;2.17;1.10;;;20.40;65.70;;;;;;6188297;23;20000;-75
2022/07/03 06:18:51;;;;;;;1.73;1.13;;;20.50;65.50;;;;;;6188834;23;20007;-76
2022/07/03 06:21:16;;;;;;;2.13;1.05;;;20.50;65.30;;;;;;6214778;23;20000;-76
2022/07/03 06:23:42;;;;;;;2.55;1.00;;;20.50;65.10;;;;;;6163808;23;20008;-76
2022/07/03 06:26:08;;;;;;;0.93;0.70;;;20.60;65.00;;;;;;6188605;23;20001;-76
2022/07/03 06:28:33;;;;;;;1.85;0.90;;;20.70;64.90;;;;;;6215148;23;19992;-76
2022/07/03 06:30:59;;;;;;;1.15;0.90;;;20.70;64.70;;;;;;6188538;23;20314;-76
2022/07/03 06:33:25;;;;;;;1.55;1.05;;;20.80;64.70;;;;;;6188786;23;20001;-75
2022/07/03 06:35:50;;;;;;;1.45;0.90;;;20.80;65.60;;;;;;6188669;23;19997;-75
2022/07/03 06:38:16;;;;;;;1.85;0.90;;;20.80;64.50;;;;;;6214528;23;20302;-75
2022/07/03 06:40:41;;;;;;;1.13;0.80;;;20.90;64.40;;;;;;6164484;23;20115;-75
2022/07/03 06:43:07;;;;;;;2.22;1.17;;;20.90;64.30;;;;;;6190143;23;20016;-75
2022/07/03 06:45:33;;;;;;;1.20;0.75;;;20.90;64.20;;;;;;6190306;23;20406;-74
2022/07/03 06:47:58;;;;;;;1.85;0.70;;;20.90;64.00;;;;;;6216551;23;20024;-75
2022/07/03 06:50:24;;;;;;;1.00;0.90;;;21.00;64.10;;;;;;6190388;23;20491;-75
2022/07/03 06:52:49;;;;;;;1.00;0.73;;;21.00;63.80;;;;;;6216429;23;20024;-74
2022/07/03 06:55:15;;;;;;;1.08;0.68;;;21.00;63.80;;;;;;6190146;23;20356;-74
2022/07/03 06:57:41;;;;;;;0.88;0.57;;;21.10;63.90;;;;;;6189793;23;20460;-74
2022/07/03 07:00:07;;;;;;;1.60;0.88;;;21.10;63.90;;;;;;6190152;23;20124;-73
2022/07/03 07:02:32;;;;;;;1.95;0.82;;;21.10;63.80;;;;;;6216727;23;20013;-74
2022/07/03 07:04:58;;;;;;;1.98;1.05;;;21.20;63.70;;;;;;6190032;23;20400;-74
2022/07/03 07:07:24;;;;;;;0.90;0.60;;;21.20;63.60;;;;;;6189637;23;20005;-74
2022/07/03 07:09:49;;;;;;;2.40;0.80;;;21.20;63.60;;;;;;6165228;23;20000;-73
2022/07/03 07:12:15;;;;;;;0.93;0.77;;;21.20;63.50;;;;;;6165129;23;20027;-73
2022/07/03 07:14:41;;;;;;;1.67;0.73;;;21.30;63.50;;;;;;6190139;23;20000;-73
2022/07/03 07:17:06;;;;;;;1.15;0.70;;;21.20;63.40;;;;;;6165237;23;20004;-75
2022/07/03 07:19:32;;;;;;;1.13;0.60;;;21.30;63.30;;;;;;6190133;23;20001;-74
2022/07/03 07:21:58;;;;;;;2.28;0.90;;;21.30;63.30;;;;;;6216057;23;20004;-74
2022/07/03 07:24:23;;;;;;;1.58;0.70;;;21.40;63.20;;;;;;6216599;23;20028;-73
2022/07/03 07:26:49;;;;;;;1.42;0.90;;;21.40;63.20;;;;;;6216285;23;20001;-73
2022/07/03 07:29:15;;;;;;;0.95;0.70;;;21.30;63.10;;;;;;6216610;23;20009;-73
2022/07/03 07:31:40;;;;;;;1.63;0.90;;;21.40;63.10;;;;;;6216229;23;20062;-73
2022/07/03 07:34:06;;;;;;;1.67;1.00;;;21.40;63.20;;;;;;6216443;23;20008;-73
2022/07/03 07:36:32;;;;;;;2.22;0.52;;;21.40;63.10;;;;;;6189377;23;20785;-73
2022/07/03 07:38:57;;;;;;;0.88;0.65;;;21.40;63.10;;;;;;6216041;23;20012;-73
2022/07/03 07:41:23;;;;;;;0.90;0.70;;;21.40;63.00;;;;;;6164975;23;20429;-73
2022/07/03 07:43:49;;;;;;;0.93;0.80;;;21.40;63.00;;;;;;6189728;23;20008;-73
2022/07/03 07:46:14;;;;;;;6.30;0.80;;;21.50;63.00;;;;;;6216211;23;19997;-73
2022/07/03 07:48:40;;;;;;;1.10;0.73;;;21.50;63.00;;;;;;6216451;23;20779;-72
2022/07/03 07:51:06;;;;;;;2.63;0.70;;;21.50;62.90;;;;;;6188955;23;20007;-73
2022/07/03 07:53:31;;;;;;;1.95;0.75;;;21.50;62.90;;;;;;6216275;23;20417;-73
2022/07/03 07:55:57;;;;;;;1.73;0.52;;;21.50;62.80;;;;;;6189529;23;19997;-73
2022/07/03 07:58:22;;;;;;;1.30;0.82;;;21.60;62.80;;;;;;6216105;23;20440;-73
2022/07/03 08:06:18;;;;;;;1.83;0.82;;;21.60;62.80;;;;;;6026097;23;20395;-73
2022/07/03 08:08:44;;;;;;;0.90;0.60;;;21.60;62.50;;;;;;6066051;23;20522;-73
2022/07/03 08:11:09;;;;;;;1.05;0.68;;;21.60;62.50;;;;;;6066107;23;20007;-73
2022/07/03 08:13:35;;;;;;;0.98;0.60;;;21.70;62.60;;;;;;6065909;23;20037;-73
2022/07/03 08:16:01;;;;;;;0.93;0.60;;;21.70;62.40;;;;;;6065811;23;20034;-73
2022/07/03 08:18:26;;;;;;;0.70;0.60;;;21.70;62.30;;;;;;6065545;23;20034;-73
2022/07/03 08:20:52;;;;;;;1.05;0.68;;;21.70;62.30;;;;;;6065902;23;20003;-73
2022/07/03 08:23:18;;;;;;;1.25;0.60;;;21.70;62.20;;;;;;6065880;23;20113;-73
2022/07/03 08:25:43;;;;;;;0.93;0.70;;;21.70;62.30;;;;;;6065914;23;20444;-73
2022/07/03 08:28:09;;;;;;;1.48;0.88;;;21.70;62.20;;;;;;6065929;23;20467;-73
2022/07/03 08:30:34;;;;;;;0.50;0.50;;;21.70;62.10;;;;;;6065728;23;20059;-74
2022/07/03 08:33:00;;;;;;;1.10;0.73;;;21.80;62.20;;;;;;6065432;23;20007;-76
2022/07/03 08:35:26;;;;;;;0.50;0.47;;;21.70;62.30;;;;;;6065943;23;20011;-76
2022/07/03 08:37:52;;;;;;;1.92;0.60;;;21.70;62.30;;;;;;6065372;23;20396;-76
2022/07/03 08:40:18;;;;;;;0.90;0.60;;;21.70;62.30;;;;;;6065967;23;20007;-76
2022/07/03 08:42:49;;;;;;;1.08;0.65;;;21.70;62.30;;;;;;6071368;23;20576;-75
2022/07/03 08:45:19;;;;;;;2.60;0.70;;;21.70;62.30;;;;;;6159776;23;20075;-77
2022/07/03 08:47:46;;;;;;;0.75;0.50;;;21.70;62.20;;;;;;6158813;23;20015;-74
2022/07/03 08:50:12;;;;;;;1.85;0.95;;;21.70;62.20;;;;;;6183722;23;19997;-74
2022/07/03 08:52:38;;;;;;;0.77;0.50;;;21.80;62.30;;;;;;6184056;23;20005;-74
2022/07/03 08:55:04;;;;;;;0.70;0.60;;;21.80;62.20;;;;;;6185648;23;20008;-73
2022/07/03 08:57:32;;;;;;;2.97;0.70;;;21.80;62.20;;;;;;6184179;23;20005;-74
2022/07/03 08:59:58;;;;;;;1.90;0.63;;;21.80;62.20;;;;;;6183702;23;20024;-74
2022/07/03 09:02:23;;;;;;;0.77;0.57;;;21.80;62.20;;;;;;6158396;23;20329;-74
2022/07/03 09:04:49;;;;;;;0.65;0.65;;;21.80;62.20;;;;;;6183807;23;20032;-74
2022/07/03 09:07:15;;;;;;;0.70;0.60;;;21.80;62.10;;;;;;6159267;23;20033;-74
2022/07/03 09:09:40;;;;;;;1.10;0.77;;;21.80;62.20;;;;;;6158839;23;20374;-73
2022/07/03 09:12:06;;;;;;;1.58;0.80;;;21.80;62.10;;;;;;6183900;23;20068;-75
2022/07/03 09:14:32;;;;;;;0.63;0.50;;;21.80;62.20;;;;;;6185280;23;20009;-74
2022/07/03 09:16:58;;;;;;;2.38;0.98;;;21.80;62.10;;;;;;6183629;23;20071;-74
2022/07/03 09:19:43;;;;;;;1.17;0.65;;;21.80;62.10;;;;;;6159246;23;20001;-74
2022/07/03 09:22:25;;;;;;;2.45;0.80;;;21.80;62.10;;;;;;6185158;23;20007;-74
2022/07/03 09:25:02;;;;;;;0.80;0.60;;;21.80;62.10;;;;;;6185501;23;20001;-73
2022/07/03 09:27:28;;;;;;;0.57;0.57;;;21.80;62.10;;;;;;6161458;23;20001;-74
2022/07/03 09:29:59;;;;;;;0.95;0.70;;;21.80;62.00;;;;;;6183777;23;20055;-75
2022/07/03 09:32:25;;;;;;;0.80;0.70;;;21.90;62.10;;;;;;6183633;23;20029;-74
2022/07/03 09:35:20;;;;;;;0.60;0.60;;;21.90;62.10;;;;;;6183802;23;20354;-74
2022/07/03 09:37:49;;;;;;;0.70;0.60;;;21.80;62.10;;;;;;6162298;23;20013;-75
2022/07/03 09:40:16;;;;;;;0.50;0.45;;;21.90;63.20;;;;;;6185141;23;20032;-74
2022/07/03 09:43:03;;;;;;;1.20;0.75;;;21.90;62.10;;;;;;6158796;23;20009;-75
2022/07/03 09:45:51;;;;;;;0.75;0.50;;;21.90;62.10;;;;;;6136998;23;20027;-74
2022/07/03 09:48:24;;;;;;;1.33;0.55;;;21.90;62.00;;;;;;6184785;23;20341;-73
2022/07/03 09:51:09;;;;;;;1.05;0.60;;;21.90;63.10;;;;;;6159196;23;20453;-73
2022/07/03 09:53:53;;;;;;;1.08;0.50;;;21.90;62.00;;;;;;6183848;23;20453;-74
2022/07/03 09:56:19;;;;;;;1.90;0.80;;;21.90;62.00;;;;;;6185116;23;20484;-74
2022/07/03 09:59:07;;;;;;;1.75;0.80;;;21.90;61.90;;;;;;6183757;23;20005;-74
2022/07/03 10:01:33;;;;;;;0.63;0.50;;;21.90;61.90;;;;;;6185088;23;20060;-73
2022/07/03 10:04:12;;;;;;;1.45;0.50;;;21.90;62.00;;;;;;6183680;23;20414;-73
2022/07/03 10:06:55;;;;;;;1.00;0.57;;;21.90;61.90;;;;;;6183467;23;20025;-74
2022/07/03 10:09:31;;;;;;;0.88;0.52;;;21.90;61.90;;;;;;6183513;23;20006;-75
2022/07/03 10:11:57;;;;;;;0.65;0.52;;;21.90;61.80;;;;;;6158794;23;20396;-75
2022/07/03 10:14:24;;;;;;;0.63;0.50;;;21.90;61.80;;;;;;6185180;23;20009;-75
2022/07/03 10:16:50;;;;;;;1.05;0.50;;;21.90;61.90;;;;;;6185211;23;20008;-75
2022/07/03 10:19:21;;;;;;;0.60;0.50;;;21.90;61.80;;;;;;6185016;23;20079;-75
2022/07/03 10:21:52;;;;;;;1.02;0.60;;;21.90;61.70;;;;;;6160094;23;20465;-74
2022/07/03 10:24:18;;;;;;;0.73;0.50;;;22.00;61.80;;;;;;6160553;23;20016;-75
2022/07/03 10:26:44;;;;;;;0.85;0.57;;;21.90;61.80;;;;;;6186770;23;20252;-75
2022/07/03 10:29:10;;;;;;;1.35;0.57;;;21.90;61.70;;;;;;6184654;23;20016;-75
2022/07/03 10:31:37;;;;;;;0.55;0.40;;;22.00;61.80;;;;;;6185086;23;20028;-75
2022/07/03 10:34:03;;;;;;;0.60;0.50;;;22.00;61.80;;;;;;6186559;23;20074;-75
2022/07/03 10:36:28;;;;;;;1.48;0.77;;;22.00;61.80;;;;;;6160425;23;20473;-74
2022/07/03 10:38:54;;;;;;;0.80;0.60;;;22.00;61.70;;;;;;6160567;23;20017;-73
2022/07/03 10:46:52;;;;;;;1.00;0.60;;;22.00;62.00;;;;;;6163761;23;20012;-74
2022/07/03 10:49:18;;;;;;;0.68;0.50;;;22.00;61.90;;;;;;6184999;23;20001;-74
2022/07/03 10:52:02;;;;;;;1.40;0.50;;;22.00;61.90;;;;;;6185162;23;20322;-75
2022/07/03 10:54:36;;;;;;;0.45;0.38;;;22.00;61.90;;;;;;6185025;23;20001;-74
2022/07/03 10:57:15;;;;;;;1.30;0.50;;;22.00;62.00;;;;;;6185185;23;20009;-74
2022/07/03 10:59:44;;;;;;;1.00;0.60;;;22.00;61.80;;;;;;6184785;23;20005;-74
2022/07/03 11:02:22;;;;;;;0.75;0.50;;;22.00;61.90;;;;;;6186626;23;20016;-74
2022/07/03 11:04:57;;;;;;;1.60;0.80;;;22.00;61.80;;;;;;6160328;23;20005;-74
2022/07/03 11:07:32;;;;;;;1.75;1.02;;;22.00;61.80;;;;;;6186591;23;20055;-74
2022/07/03 11:10:10;;;;;;;0.68;0.60;;;22.00;61.80;;;;;;6160574;23;20008;-74
2022/07/03 11:13:15;;;;;;;1.25;0.50;;;22.00;61.80;;;;;;6186422;23;20460;-74
2022/07/03 11:15:41;;;;;;;1.10;0.52;;;22.00;61.80;;;;;;6185041;23;20437;-76
2022/07/03 11:18:13;;;;;;;1.58;0.70;;;22.00;61.80;;;;;;6186617;23;20008;-75
2022/07/03 11:20:42;;;;;;;1.00;0.43;;;22.00;61.80;;;;;;6184805;23;20337;-74
2022/07/03 11:23:10;;;;;;;0.70;0.60;;;22.00;61.90;;;;;;6186229;23;20442;-76
2022/07/03 11:25:43;;;;;;;1.27;0.60;;;22.00;61.80;;;;;;6186077;23;19997;-75
2022/07/03 11:28:30;;;;;;;1.08;0.50;;;22.00;61.80;;;;;;6160799;23;20085;-75
2022/07/03 11:31:08;;;;;;;0.60;0.35;;;22.00;61.80;;;;;;6185361;23;20072;-74
2022/07/03 11:33:55;;;;;;;0.60;0.60;;;22.00;61.80;;;;;;6186479;23;20004;-75
2022/07/03 11:36:28;;;;;;;1.48;0.70;;;22.00;61.70;;;;;;6186139;23;20004;-75
2022/07/03 11:39:00;;;;;;;;;;;22.10;61.80;;;;;;6210476;23;20011;-74
2022/07/03 11:41:26;;;;;;;0.70;0.60;;;22.10;62.80;;;;;;6216032;23;20283;-74
2022/07/03 11:44:05;;;;;;;1.83;0.60;;;22.10;61.80;;;;;;6215950;23;20448;-73
2022/07/03 11:46:32;;;;;;;2.47;0.55;;;22.00;61.70;;;;;;6212760;23;20000;-72
2022/07/03 11:49:10;;;;;;;3.42;0.90;;;21.80;60.10;;;;;;6162758;23;19997;-72
2022/07/03 11:51:37;;;;;;;3.83;0.90;;;21.60;59.60;;;;;;6214494;23;20518;-72
2022/07/03 11:54:03;;;;;;;2.30;0.80;;;21.50;59.40;;;;;;6163284;23;20005;-72
2022/07/03 11:56:28;;;;;;;3.03;0.70;;;21.30;59.20;;;;;;6214177;23;20004;-72
2022/07/03 11:58:55;;;;;;;3.60;0.90;;;21.30;59.10;;;;;;6187860;23;20115;-72
2022/07/03 12:01:27;;;;;;;1.88;0.52;;;21.20;58.90;;;;;;6163048;23;20005;-72
2022/07/03 12:04:06;;;;;;;2.50;0.70;;;21.10;58.40;;;;;;6214428;23;20032;-72
2022/07/03 12:06:51;;;;;;;4.43;1.27;;;21.10;58.40;;;;;;6187978;23;20219;-72
2022/07/03 12:09:24;;;;;;;2.88;0.90;;;21.10;58.20;;;;;;6214372;23;20008;-72
2022/07/03 12:12:09;;;;;;;3.20;0.80;;;21.10;58.20;;;;;;6187426;23;20005;-72
2022/07/03 12:14:48;;;;;;;3.85;0.70;;;21.00;58.40;;;;;;6187666;23;20008;-72
2022/07/03 12:17:16;;;;;;;3.53;1.00;;;21.00;58.90;;;;;;6163817;23;20001;-72
2022/07/03 12:19:48;;;;;;;3.08;1.00;;;21.00;59.10;;;;;;6187734;23;20001;-72
2022/07/03 12:22:34;;;;;;;30.52;10.98;;;21.00;59.30;;;;;;6214048;23;20079;-72
2022/07/03 12:25:00;;;;;;;26.38;11.43;;;21.00;59.70;;;;;;6163500;23;19997;-72
2022/07/03 12:27:26;;;;;;;19.60;10.82;;;21.00;59.90;;;;;;6214191;23;20433;-72
2022/07/03 12:29:52;;;;;;;25.77;11.35;;;21.00;60.40;;;;;;6187613;23;20001;-72
2022/07/03 12:32:18;;;;;;;21.33;10.10;;;21.00;60.50;;;;;;6187643;23;20004;-72
2022/07/03 12:34:43;;;;;;;17.70;10.02;;;21.00;60.30;;;;;;6187738;23;20005;-73
2022/07/03 12:37:09;;;;;;;15.73;8.38;;;20.90;59.70;;;;;;6188004;23;20074;-73
2022/07/03 12:39:47;;;;;;;15.25;8.70;;;20.90;59.60;;;;;;6214364;23;20008;-72
2022/07/03 12:42:22;;;;;;;15.85;8.07;;;20.90;59.70;;;;;;6189313;23;20468;-72
2022/07/03 12:44:58;;;;;;;15.45;8.48;;;20.90;59.60;;;;;;6188723;23;20389;-72
2022/07/03 12:47:24;;;;;;;15.13;7.63;;;20.90;59.60;;;;;;6189002;23;20438;-72
2022/07/03 12:50:04;;;;;;;13.95;6.32;;;20.90;59.30;;;;;;6163455;23;20035;-72
2022/07/03 12:52:30;;;;;;;13.18;6.60;;;20.80;58.90;;;;;;6214714;23;20004;-72
2022/07/03 12:54:56;;;;;;;9.93;5.55;;;20.80;59.20;;;;;;6188237;23;20322;-74
2022/07/03 13:00:17;;;;;;;9.27;4.70;;;20.80;59.10;;;;;;6192575;23;20063;-72
2022/07/03 13:02:44;;;;;;;8.80;5.40;;;20.80;58.70;;;;;;6189052;23;20004;-72
2022/07/03 13:05:28;;;;;;;7.47;4.13;;;20.80;58.90;;;;;;6163569;23;19996;-71
2022/07/03 13:07:54;;;;;;;7.35;3.83;;;20.70;58.20;;;;;;6214008;23;20001;-71
2022/07/03 13:10:21;;;;;;;7.30;3.38;;;20.70;57.60;;;;;;6187825;23;20054;-71
2022/07/03 13:12:50;;;;;;;4.13;2.63;;;20.60;56.90;;;;;;6188147;23;20008;-71
2022/07/03 13:15:16;;;;;;;6.47;2.80;;;20.60;57.10;;;;;;6214162;23;20009;-71
2022/07/03 13:18:11;;;;;;;6.25;2.85;;;20.70;57.00;;;;;;6214622;23;20010;-71